Terminal Aerodrome Forecast
Issued by NWS Newport/Morehead City, NC

Home | Current Version | Previous Version | Text Only | Print | Product List | Glossary Off
Versions: 1 2 3 4 5 6 7 8 9 10 11 12 13 14 15 16 17 18 19 20 21 22 23 24 25 26

000
FTUS42 KMHX 240500
TAFEWN
TAF
KEWN 240521Z 2406/2506 17016G23KT 2SM +RA BR OVC015
     FM240800 20010G15KT P6SM BKN007
     FM241400 20015G20KT P6SM SCT007 BKN025
     FM242200 19008KT 5SM BR OVC010=

USA.gov is the U.S. government's official web portal to all federal, state and local government web resources and services.